Time;durP1;ratioP1;P1;durP2;ratioP2;P2;SDS_P1;SDS_P2;PMS_P1;PMS_P2;Temp;Humidity;BMP_temperature;BMP_pressure;BME280_temperature;BME280_humidity;BME280_pressure;Samples;Min_cycle;Max_cycle;Signal;HPM_P1;HPM_P2
2023/12/11 00:00:03;;;;;;;20.90;4.07;;;11.30;99.90;;;;;;6260248;22;20409;-87
2023/12/11 00:02:29;;;;;;;20.50;4.27;;;11.30;99.90;;;;;;6286069;22;20380;-84
2023/12/11 00:04:54;;;;;;;18.80;4.10;;;11.30;99.90;;;;;;6259642;22;20429;-87
2023/12/11 00:07:20;;;;;;;16.10;4.80;;;11.30;99.90;;;;;;6286274;22;20183;-85
2023/12/11 00:09:45;;;;;;;29.40;4.13;;;11.30;99.90;;;;;;6285066;22;20169;-85
2023/12/11 00:12:11;;;;;;;14.53;4.47;;;11.30;99.90;;;;;;6284869;22;20161;-86
2023/12/11 00:14:37;;;;;;;27.33;5.13;;;11.30;99.90;;;;;;6286596;22;20153;-86
2023/12/11 00:17:02;;;;;;;20.73;4.23;;;11.30;99.90;;;;;;6286177;22;20345;-87
2023/12/11 00:19:28;;;;;;;15.60;4.67;;;11.20;99.90;;;;;;6270248;22;20242;-85
2023/12/11 00:21:54;;;;;;;18.80;3.90;;;11.20;99.90;;;;;;6286565;22;20227;-86
2023/12/11 00:24:19;;;;;;;16.43;4.30;;;11.20;99.90;;;;;;6286083;22;20157;-85
2023/12/11 00:26:45;;;;;;;22.90;5.00;;;11.10;99.90;;;;;;6285855;22;20471;-86
2023/12/11 00:29:10;;;;;;;28.43;4.43;;;11.10;99.90;;;;;;6284920;22;20173;-86
2023/12/11 00:31:36;;;;;;;21.73;5.13;;;11.10;99.90;;;;;;6284841;22;20680;-85
2023/12/11 00:34:02;;;;;;;19.23;4.97;;;11.10;99.90;;;;;;6286248;22;20173;-86
2023/12/11 00:36:27;;;;;;;21.53;4.20;;;11.10;99.90;;;;;;6286207;22;20178;-86
2023/12/11 00:38:53;;;;;;;22.33;3.83;;;11.10;99.90;;;;;;6285375;22;20195;-86
2023/12/11 00:41:18;;;;;;;19.33;5.57;;;11.10;99.90;;;;;;6284772;22;20180;-85
2023/12/11 00:43:44;;;;;;;25.40;4.37;;;11.10;99.90;;;;;;6284756;22;20157;-85
2023/12/11 00:46:26;;;;;;;12.10;4.23;;;11.10;99.90;;;;;;6285008;22;20163;-85
2023/12/11 00:48:51;;;;;;;29.13;5.33;;;11.10;99.90;;;;;;6284651;22;20176;-85
2023/12/11 00:51:18;;;;;;;19.70;4.80;;;11.10;99.90;;;;;;6285747;22;20682;-85
2023/12/11 00:53:47;;;;;;;14.03;3.30;;;11.10;99.90;;;;;;6285641;22;20168;-85
2023/12/11 00:56:13;;;;;;;23.60;4.60;;;11.20;99.90;;;;;;6285089;22;20409;-85
2023/12/11 00:58:39;;;;;;;28.67;4.80;;;11.20;99.90;;;;;;6284675;22;20674;-85
2023/12/11 01:01:05;;;;;;;22.20;5.67;;;11.20;99.90;;;;;;6286677;22;20372;-86
2023/12/11 01:03:30;;;;;;;14.60;4.07;;;11.20;99.90;;;;;;6283445;22;20168;-86
2023/12/11 01:05:56;;;;;;;28.53;5.47;;;11.20;99.90;;;;;;6283117;22;20806;-86
2023/12/11 01:08:21;;;;;;;16.13;3.83;;;11.20;99.90;;;;;;6284088;22;20170;-85
2023/12/11 01:10:47;;;;;;;23.00;4.60;;;11.20;99.90;;;;;;6282646;22;20417;-85
2023/12/11 01:13:12;;;;;;;25.73;4.90;;;11.30;99.90;;;;;;6284074;22;20172;-86
2023/12/11 01:15:38;;;;;;;22.70;4.43;;;11.30;99.90;;;;;;6283649;22;20156;-86
2023/12/11 01:18:04;;;;;;;16.33;4.00;;;11.30;99.90;;;;;;6283554;22;20156;-86
2023/12/11 01:20:29;;;;;;;26.37;4.70;;;11.40;27.60;;;;;;6283479;22;20184;-85
2023/12/11 01:22:55;;;;;;;27.67;5.13;;;11.40;3.40;;;;;;6284353;22;20217;-86
2023/12/11 01:25:21;;;;;;;25.90;4.60;;;11.40;26.20;;;;;;6257446;22;20164;-86
2023/12/11 01:27:46;;;;;;;18.97;5.07;;;11.40;59.10;;;;;;6283740;22;20153;-85
2023/12/11 01:30:12;;;;;;;17.90;4.80;;;11.40;95.20;;;;;;6283447;22;20187;-83
2023/12/11 01:32:38;;;;;;;19.30;4.60;;;11.40;99.90;;;;;;6284172;22;20181;-86
2023/12/11 01:35:03;;;;;;;22.13;4.80;;;11.40;99.90;;;;;;6282834;22;20149;-84
2023/12/11 01:37:29;;;;;;;24.50;4.73;;;11.40;99.90;;;;;;6284044;22;20450;-85
2023/12/11 01:39:54;;;;;;;18.63;5.03;;;11.40;91.30;;;;;;6284418;22;20392;-85
2023/12/11 01:42:20;;;;;;;19.50;5.10;;;11.40;64.50;;;;;;6255231;22;20218;-85
2023/12/11 01:44:46;;;;;;;23.87;3.90;;;11.40;35.70;;;;;;6284554;22;20247;-85
2023/12/11 01:47:12;;;;;;;23.97;5.80;;;11.50;1.00;;;;;;6283700;22;20152;-84
2023/12/11 01:49:38;;;;;;;27.47;4.70;;;11.50;1.00;;;;;;6282574;22;20733;-84
2023/12/11 01:52:05;;;;;;;27.30;5.40;;;11.50;1.00;;;;;;6255557;22;20380;-84
2023/12/11 01:54:31;;;;;;;13.67;4.10;;;11.50;1.00;;;;;;6255171;22;20384;-85
2023/12/11 01:56:57;;;;;;;16.30;4.73;;;11.50;1.00;;;;;;6282178;22;20398;-85
2023/12/11 01:59:26;;;;;;;25.90;4.47;;;11.50;1.00;;;;;;6282301;22;20195;-84
2023/12/11 02:01:51;;;;;;;18.87;4.17;;;11.50;1.00;;;;;;6282109;22;20152;-84
2023/12/11 02:04:17;;;;;;;25.97;5.37;;;11.50;1.00;;;;;;6282570;22;20379;-85
2023/12/11 02:06:43;;;;;;;17.60;4.60;;;11.50;99.90;;;;;;6283307;22;20470;-86
2023/12/11 02:09:09;;;;;;;20.70;4.30;;;11.40;99.90;;;;;;6257801;22;20257;-85
2023/12/11 02:11:34;;;;;;;22.30;5.97;;;11.40;99.90;;;;;;6284378;22;20157;-85
2023/12/11 02:14:00;;;;;;;16.63;4.07;;;11.40;99.90;;;;;;6284875;22;20419;-84
2023/12/11 02:16:26;;;;;;;18.90;4.77;;;11.40;99.90;;;;;;6282373;22;20149;-86
2023/12/11 02:18:52;;;;;;;28.70;5.00;;;11.30;99.90;;;;;;6283939;22;20325;-85
2023/12/11 02:21:18;;;;;;;20.40;4.27;;;11.40;99.90;;;;;;6282600;22;20366;-87
2023/12/11 02:24:06;;;;;;;22.17;4.10;;;11.40;1.00;;;;;;6280255;22;20740;-86
2023/12/11 02:26:31;;;;;;;21.57;3.53;;;11.40;99.90;;;;;;6281006;22;20391;-87
2023/12/11 02:28:57;;;;;;;25.00;5.20;;;11.40;99.90;;;;;;6281627;22;20396;-85
2023/12/11 02:31:22;;;;;;;18.00;5.43;;;11.50;99.90;;;;;;6279548;22;20156;-86
2023/12/11 02:33:48;;;;;;;17.60;3.60;;;11.50;1.00;;;;;;6280943;22;20541;-86
2023/12/11 02:36:14;;;;;;;21.40;4.70;;;11.40;1.00;;;;;;6279727;22;20156;-86
2023/12/11 02:38:39;;;;;;;23.83;4.80;;;11.40;1.00;;;;;;6279361;22;20200;-86
2023/12/11 02:41:05;;;;;;;24.07;4.90;;;11.40;1.00;;;;;;6279128;22;20184;-84
2023/12/11 02:43:30;;;;;;;37.00;6.67;;;11.40;1.00;;;;;;6279813;22;20274;-86
2023/12/11 02:45:56;;;;;;;20.53;5.00;;;11.40;1.00;;;;;;6279983;22;20593;-86
2023/12/11 02:48:21;;;;;;;26.20;4.67;;;11.40;1.00;;;;;;6281966;22;20161;-86
2023/12/11 02:50:47;;;;;;;12.77;4.03;;;11.40;99.90;;;;;;6282822;22;20152;-86
2023/12/11 02:53:13;;;;;;;23.10;5.00;;;11.40;99.90;;;;;;6280389;22;20212;-86
2023/12/11 02:55:38;;;;;;;28.93;5.10;;;11.50;7.20;;;;;;6283020;22;20149;-86
2023/12/11 02:58:04;;;;;;;22.83;4.97;;;11.50;39.30;;;;;;6283924;22;20232;-86
2023/12/11 03:00:31;;;;;;;17.00;5.07;;;11.50;1.00;;;;;;6282106;22;20190;-87
2023/12/11 03:02:57;;;;;;;16.93;4.10;;;11.50;99.90;;;;;;6283121;22;20232;-86
2023/12/11 03:05:23;;;;;;;30.80;4.93;;;11.50;1.00;;;;;;6283683;22;20851;-86
2023/12/11 03:07:49;;;;;;;19.23;3.80;;;11.40;1.00;;;;;;6283125;22;20433;-86
2023/12/11 03:10:14;;;;;;;20.03;5.00;;;11.40;1.00;;;;;;6283327;22;20871;-86
2023/12/11 03:12:40;;;;;;;18.73;4.10;;;11.40;99.90;;;;;;6281988;22;20211;-85
2023/12/11 03:15:07;;;;;;;20.30;5.20;;;11.50;99.90;;;;;;6284645;22;20378;-86
2023/12/11 03:17:32;;;;;;;16.80;4.00;;;11.50;1.00;;;;;;6286020;22;20221;-86
2023/12/11 03:20:01;;;;;;;17.23;3.50;;;11.50;20.10;;;;;;6284080;22;20450;-87
2023/12/11 03:22:26;;;;;;;22.07;5.37;;;11.50;1.00;;;;;;6287058;22;20674;-87
2023/12/11 03:24:53;;;;;;;14.27;3.37;;;11.50;1.00;;;;;;6288289;22;20379;-86
2023/12/11 03:27:20;;;;;;;17.27;3.70;;;11.50;99.90;;;;;;6290321;22;20220;-88
2023/12/11 03:29:46;;;;;;;16.87;4.00;;;11.50;1.00;;;;;;6293098;22;20395;-87
2023/12/11 03:32:11;;;;;;;11.07;3.37;;;11.50;1.00;;;;;;6291586;22;20401;-86
2023/12/11 03:34:37;;;;;;;29.83;4.67;;;11.50;1.00;;;;;;6291551;22;20379;-87
2023/12/11 03:37:03;;;;;;;13.40;3.47;;;11.50;99.90;;;;;;6293701;22;20145;-86
2023/12/11 03:39:28;;;;;;;23.73;3.90;;;11.50;99.90;;;;;;6290432;22;20177;-86
2023/12/11 03:41:54;;;;;;;12.97;3.37;;;11.50;1.00;;;;;;6284620;22;20157;-87
2023/12/11 03:44:20;;;;;;;17.30;3.60;;;11.50;1.00;;;;;;6283415;22;20163;-86
2023/12/11 03:46:46;;;;;;;21.23;3.73;;;11.60;1.00;;;;;;6285135;22;20379;-86
2023/12/11 03:49:16;;;;;;;14.97;3.63;;;11.60;1.00;;;;;;6282619;22;20180;-86
2023/12/11 03:51:42;;;;;;;24.20;4.23;;;11.60;1.00;;;;;;6282973;22;20375;-86
2023/12/11 03:54:08;;;;;;;22.50;4.17;;;11.70;1.00;;;;;;6284897;22;20465;-87
2023/12/11 03:56:33;;;;;;;24.07;4.30;;;11.60;55.20;;;;;;6283500;22;20372;-85
2023/12/11 03:59:01;;;;;;;13.53;4.07;;;11.60;1.00;;;;;;6283700;22;20228;-86
2023/12/11 04:01:27;;;;;;;28.53;4.63;;;11.60;10.20;;;;;;6284356;22;20153;-85
2023/12/11 04:03:54;;;;;;;16.57;3.30;;;11.60;1.00;;;;;;6284465;22;20976;-86
2023/12/11 04:06:19;;;;;;;14.80;4.27;;;11.60;99.90;;;;;;6284764;22;20149;-86
2023/12/11 04:08:45;;;;;;;18.63;3.07;;;11.70;99.90;;;;;;6281828;22;20403;-85
2023/12/11 04:11:10;;;;;;;21.87;4.47;;;11.70;99.90;;;;;;6307894;22;20159;-85
2023/12/11 04:13:36;;;;;;;10.77;3.10;;;11.70;99.90;;;;;;6282591;22;20184;-86
2023/12/11 04:16:03;;;;;;;16.23;3.10;;;11.70;99.90;;;;;;6284236;22;20153;-86
2023/12/11 04:18:30;;;;;;;12.23;3.43;;;11.70;99.90;;;;;;6284007;22;20187;-86
2023/12/11 04:20:56;;;;;;;25.33;4.90;;;11.70;94.70;;;;;;6285195;22;20360;-86
2023/12/11 04:23:22;;;;;;;23.13;5.00;;;11.70;99.90;;;;;;6284497;22;20407;-85
2023/12/11 04:25:48;;;;;;;20.73;3.90;;;11.70;55.10;;;;;;6284186;22;20737;-87
2023/12/11 04:28:13;;;;;;;16.20;4.13;;;11.70;79.40;;;;;;6284138;22;20858;-86
2023/12/11 04:30:39;;;;;;;15.73;3.60;;;11.70;99.90;;;;;;6283085;22;20238;-87
2023/12/11 04:33:04;;;;;;;18.03;4.03;;;11.70;99.90;;;;;;6281883;22;20586;-87
2023/12/11 04:35:30;;;;;;;19.00;3.67;;;11.60;99.90;;;;;;6283137;22;20236;-86
2023/12/11 04:37:55;;;;;;;12.73;3.90;;;11.50;99.90;;;;;;6255122;22;20157;-85
2023/12/11 04:40:21;;;;;;;15.50;5.10;;;11.40;1.00;;;;;;6282747;22;20528;-85
2023/12/11 04:42:46;;;;;;;23.27;5.20;;;11.30;1.00;;;;;;6283587;22;20149;-86
2023/12/11 04:45:12;;;;;;;13.80;3.60;;;11.30;51.90;;;;;;6278850;22;20149;-85
2023/12/11 04:47:38;;;;;;;22.10;5.43;;;11.20;99.90;;;;;;6275765;22;20168;-86
2023/12/11 04:50:03;;;;;;;21.73;4.43;;;11.20;99.90;;;;;;6280841;22;20636;-86
2023/12/11 04:52:29;;;;;;;19.83;4.03;;;11.10;99.90;;;;;;6277726;22;20234;-86
2023/12/11 04:54:55;;;;;;;18.40;3.70;;;11.10;99.90;;;;;;6281196;22;20371;-85
2023/12/11 04:57:20;;;;;;;16.67;3.20;;;11.10;99.90;;;;;;6279945;22;20145;-85
2023/12/11 04:59:46;;;;;;;20.60;4.07;;;11.10;99.90;;;;;;6252734;22;20176;-87
2023/12/11 05:02:11;;;;;;;19.10;4.47;;;11.10;99.90;;;;;;6280154;22;20152;-86
2023/12/11 05:04:37;;;;;;;15.80;4.37;;;11.10;99.90;;;;;;6280828;22;20144;-85
2023/12/11 05:07:03;;;;;;;18.60;3.70;;;11.00;99.90;;;;;;6254080;22;20174;-86
2023/12/11 05:09:28;;;;;;;16.63;3.90;;;11.00;99.90;;;;;;6282819;22;20524;-86
2023/12/11 05:11:54;;;;;;;11.90;3.93;;;11.00;99.90;;;;;;6253973;22;20163;-86
2023/12/11 05:14:19;;;;;;;19.70;4.23;;;11.00;99.90;;;;;;6282001;22;20232;-86
2023/12/11 05:16:45;;;;;;;16.23;3.90;;;11.00;99.90;;;;;;6252809;22;20157;-85
2023/12/11 05:19:10;;;;;;;26.77;5.30;;;10.90;1.00;;;;;;6279879;22;20204;-87
2023/12/11 05:21:36;;;;;;;15.97;3.13;;;10.90;1.00;;;;;;6280687;22;20145;-86
2023/12/11 05:24:01;;;;;;;14.70;3.53;;;10.90;1.00;;;;;;6282562;22;20181;-86
2023/12/11 05:26:27;;;;;;;7.87;2.53;;;10.80;1.00;;;;;;6279845;22;20161;-87
2023/12/11 05:28:54;;;;;;;14.80;2.40;;;10.80;1.00;;;;;;6280515;22;20234;-87
2023/12/11 05:31:21;;;;;;;5.93;1.80;;;10.70;1.00;;;;;;6282221;22;20156;-86
2023/12/11 05:33:46;;;;;;;11.93;2.37;;;10.60;1.00;;;;;;6280494;22;20427;-86
2023/12/11 05:36:12;;;;;;;8.97;2.40;;;10.60;1.00;;;;;;6253797;22;20418;-86
2023/12/11 05:38:37;;;;;;;13.93;3.33;;;10.60;1.00;;;;;;6280520;22;20175;-86
2023/12/11 05:41:03;;;;;;;10.00;2.40;;;10.50;1.00;;;;;;6281304;22;20148;-86
2023/12/11 05:43:29;;;;;;;14.80;3.60;;;10.50;1.00;;;;;;6254430;22;20156;-86
2023/12/11 05:45:54;;;;;;;16.73;4.00;;;10.50;1.00;;;;;;6280474;22;20473;-86
2023/12/11 05:48:20;;;;;;;18.90;3.40;;;10.50;1.00;;;;;;6280413;22;20157;-86
2023/12/11 05:50:45;;;;;;;10.67;3.10;;;10.50;1.00;;;;;;6253448;22;20157;-86
2023/12/11 05:53:11;;;;;;;15.83;4.33;;;10.50;1.00;;;;;;6279399;22;20219;-86
2023/12/11 05:55:36;;;;;;;17.60;3.27;;;10.50;1.00;;;;;;6280216;22;20149;-85
2023/12/11 05:58:02;;;;;;;12.93;3.10;;;10.50;1.00;;;;;;6281503;22;20151;-86
2023/12/11 06:00:28;;;;;;;12.00;3.43;;;10.50;1.00;;;;;;6281550;22;20176;-86
2023/12/11 06:02:53;;;;;;;13.50;4.57;;;10.50;1.00;;;;;;6282111;22;20167;-86
2023/12/11 06:05:19;;;;;;;19.50;4.47;;;10.50;1.00;;;;;;6255921;22;20568;-86
2023/12/11 06:07:44;;;;;;;18.70;3.97;;;10.50;1.00;;;;;;6282640;22;20149;-88
2023/12/11 06:10:10;;;;;;;14.10;3.37;;;10.50;1.00;;;;;;6280839;22;20168;-86
2023/12/11 06:12:35;;;;;;;21.67;3.73;;;10.50;1.00;;;;;;6283780;22;20202;-86
2023/12/11 06:15:01;;;;;;;19.53;3.53;;;10.50;1.00;;;;;;6283612;22;20145;-87
2023/12/11 06:17:27;;;;;;;18.03;2.77;;;10.60;1.00;;;;;;6282771;22;20145;-86
2023/12/11 06:19:52;;;;;;;19.10;3.63;;;10.60;1.00;;;;;;6283389;22;20234;-86
2023/12/11 06:22:18;;;;;;;15.47;3.87;;;10.60;1.00;;;;;;6282158;22;20454;-86
2023/12/11 06:24:44;;;;;;;17.67;3.30;;;10.60;99.90;;;;;;6282753;22;20149;-86
2023/12/11 06:27:10;;;;;;;16.93;3.80;;;10.60;99.90;;;;;;6282786;22;20148;-86
2023/12/11 06:29:36;;;;;;;19.50;3.80;;;10.60;99.90;;;;;;6255778;22;20196;-86
2023/12/11 06:32:02;;;;;;;15.33;3.40;;;10.70;99.90;;;;;;6282698;22;20397;-86
2023/12/11 06:34:27;;;;;;;17.13;2.63;;;10.70;99.90;;;;;;6282324;22;20960;-85
2023/12/11 06:36:53;;;;;;;14.80;3.47;;;10.70;99.90;;;;;;6280479;22;20555;-85
2023/12/11 06:39:19;;;;;;;15.27;3.17;;;10.70;99.90;;;;;;6280428;22;20172;-86
2023/12/11 06:41:45;;;;;;;17.20;2.93;;;10.70;99.90;;;;;;6277898;22;20203;-86
2023/12/11 06:44:10;;;;;;;14.50;4.77;;;10.70;99.90;;;;;;6280538;22;20379;-86
2023/12/11 06:46:37;;;;;;;15.13;4.07;;;10.70;99.90;;;;;;6253398;22;20175;-86
2023/12/11 06:49:02;;;;;;;11.50;3.77;;;10.70;99.90;;;;;;6280842;22;20507;-86
2023/12/11 06:51:29;;;;;;;9.20;2.80;;;10.70;99.90;;;;;;6279473;22;20376;-86
2023/12/11 06:54:00;;;;;;;14.50;3.90;;;10.70;99.90;;;;;;6278343;22;20959;-86
2023/12/11 06:56:27;;;;;;;15.20;3.80;;;10.70;99.90;;;;;;6250981;22;20372;-86
2023/12/11 06:58:58;;;;;;;14.47;2.90;;;10.80;99.90;;;;;;6280347;22;20395;-87
2023/12/11 07:01:31;;;;;;;17.57;4.20;;;10.80;99.90;;;;;;6276063;22;20355;-87
2023/12/11 07:03:57;;;;;;;14.07;3.60;;;10.80;99.90;;;;;;6275905;22;20470;-86
2023/12/11 07:06:23;;;;;;;11.07;3.13;;;10.80;99.90;;;;;;6274001;22;20379;-86
2023/12/11 07:08:49;;;;;;;15.40;4.10;;;10.90;99.90;;;;;;6275413;22;20396;-86
2023/12/11 07:11:15;;;;;;;12.27;3.60;;;10.90;99.90;;;;;;6275426;22;20451;-87
2023/12/11 07:13:44;;;;;;;21.37;3.67;;;10.90;96.50;;;;;;6248331;22;20176;-87
2023/12/11 07:16:10;;;;;;;15.30;3.67;;;10.90;2.60;;;;;;6247722;22;20472;-87
2023/12/11 07:18:36;;;;;;;19.20;5.30;;;10.90;1.00;;;;;;6274903;22;20411;-87
2023/12/11 07:21:06;;;;;;;14.23;3.47;;;10.90;1.00;;;;;;6274507;22;20148;-86
2023/12/11 07:23:31;;;;;;;16.00;3.40;;;11.00;1.00;;;;;;6274561;22;20379;-86
2023/12/11 07:25:59;;;;;;;12.60;3.90;;;11.10;1.00;;;;;;6273828;22;20477;-86
2023/12/11 07:28:24;;;;;;;22.60;3.23;;;11.10;1.00;;;;;;6246866;22;20156;-87
2023/12/11 07:30:50;;;;;;;11.83;4.37;;;11.10;99.90;;;;;;6247238;22;20877;-86
2023/12/11 07:33:15;;;;;;;20.23;4.00;;;11.20;99.90;;;;;;6246942;22;20203;-87
2023/12/11 07:35:41;;;;;;;15.57;3.40;;;11.20;99.90;;;;;;6274537;22;20160;-87
2023/12/11 07:38:07;;;;;;;14.17;3.37;;;11.20;99.90;;;;;;6274024;22;20683;-85
2023/12/11 07:40:32;;;;;;;12.90;3.43;;;11.20;99.90;;;;;;6274321;22;20219;-86
2023/12/11 07:42:59;;;;;;;17.37;4.20;;;11.20;99.90;;;;;;6273566;22;20375;-86
2023/12/11 07:45:25;;;;;;;8.57;3.27;;;11.20;99.90;;;;;;6247066;22;20658;-86
2023/12/11 07:47:50;;;;;;;14.60;4.30;;;11.20;99.90;;;;;;6276402;22;20387;-87
2023/12/11 07:50:16;;;;;;;23.20;4.20;;;11.20;99.90;;;;;;6274285;22;20194;-87
2023/12/11 07:52:42;;;;;;;15.43;4.07;;;11.30;99.90;;;;;;6274606;22;20550;-87
2023/12/11 07:55:08;;;;;;;12.60;3.00;;;11.30;1.00;;;;;;6247871;22;20191;-88
2023/12/11 07:57:33;;;;;;;15.03;3.83;;;11.30;1.00;;;;;;6275629;22;20149;-86
2023/12/11 07:59:59;;;;;;;10.93;2.97;;;11.30;1.00;;;;;;6274848;22;20173;-87
2023/12/11 08:02:25;;;;;;;21.00;4.10;;;11.30;50.20;;;;;;6276087;22;20145;-87
2023/12/11 08:04:51;;;;;;;21.23;3.80;;;11.40;1.00;;;;;;6276021;22;20927;-86
2023/12/11 08:07:16;;;;;;;13.97;4.57;;;11.50;99.90;;;;;;6276738;22;20379;-87
2023/12/11 08:09:42;;;;;;;17.40;4.43;;;11.50;1.00;;;;;;6277306;22;20169;-87
2023/12/11 08:12:08;;;;;;;24.93;3.60;;;11.70;99.90;;;;;;6277995;22;20228;-87
2023/12/11 08:14:34;;;;;;;20.53;3.73;;;11.80;1.00;;;;;;6278033;22;20173;-87
2023/12/11 08:17:00;;;;;;;17.07;3.87;;;11.90;35.80;;;;;;6275772;22;20394;-87
2023/12/11 08:19:26;;;;;;;13.27;3.53;;;12.00;1.00;;;;;;6277016;22;20187;-86
2023/12/11 08:21:52;;;;;;;17.77;2.97;;;12.10;99.90;;;;;;6249929;22;20160;-86
2023/12/11 08:24:18;;;;;;;15.93;4.30;;;12.20;1.00;;;;;;6275633;22;20437;-87
2023/12/11 08:26:44;;;;;;;24.97;5.07;;;12.20;1.00;;;;;;6276607;22;20392;-86
2023/12/11 08:29:10;;;;;;;18.47;4.10;;;12.10;1.00;;;;;;6248854;22;20461;-87
2023/12/11 08:31:35;;;;;;;19.13;4.67;;;11.90;99.90;;;;;;6248157;22;20188;-88
2023/12/11 08:34:01;;;;;;;16.50;5.57;;;11.90;1.00;;;;;;6276634;22;20207;-87
2023/12/11 08:36:27;;;;;;;22.63;3.80;;;11.80;74.60;;;;;;6249386;22;20165;-86
2023/12/11 08:38:53;;;;;;;16.93;3.40;;;11.70;99.90;;;;;;6246575;22;20399;-88
2023/12/11 08:41:18;;;;;;;15.87;4.50;;;11.70;1.00;;;;;;6276803;22;20271;-87
2023/12/11 08:43:46;;;;;;;15.87;4.43;;;11.70;1.00;;;;;;6249676;22;20620;-88
2023/12/11 08:46:12;;;;;;;15.13;4.17;;;11.70;1.00;;;;;;6276682;22;20149;-86
2023/12/11 08:48:38;;;;;;;14.83;4.00;;;11.70;1.00;;;;;;6275830;22;20402;-87
2023/12/11 08:51:04;;;;;;;17.00;4.37;;;11.70;99.90;;;;;;6274474;22;20391;-87
2023/12/11 08:53:30;;;;;;;14.53;3.80;;;11.70;99.90;;;;;;6248124;22;20180;-87
2023/12/11 08:55:55;;;;;;;18.03;4.00;;;11.70;99.90;;;;;;6249600;22;20705;-87
2023/12/11 08:58:21;;;;;;;13.70;3.33;;;11.70;99.90;;;;;;6276135;22;20157;-87
2023/12/11 09:00:47;;;;;;;16.27;4.57;;;11.70;99.90;;;;;;6276091;22;20152;-87
2023/12/11 09:03:13;;;;;;;17.03;5.00;;;11.70;99.90;;;;;;6249873;22;20157;-87
2023/12/11 09:05:38;;;;;;;11.93;3.27;;;11.60;99.90;;;;;;6277335;22;20387;-86
2023/12/11 09:08:04;;;;;;;12.00;2.70;;;11.60;1.00;;;;;;6274661;22;20161;-87
2023/12/11 09:10:30;;;;;;;23.67;5.10;;;11.60;1.00;;;;;;6277723;22;20502;-87
2023/12/11 09:12:59;;;;;;;16.93;3.70;;;11.60;99.90;;;;;;6276850;22;20511;-87
2023/12/11 09:15:24;;;;;;;23.27;4.10;;;11.60;1.00;;;;;;6277546;22;20608;-87
2023/12/11 09:17:50;;;;;;;23.47;5.47;;;11.60;1.00;;;;;;6276395;22;20454;-87
2023/12/11 09:20:15;;;;;;;21.43;4.03;;;11.60;1.00;;;;;;6276827;22;20189;-85
2023/12/11 09:22:41;;;;;;;15.50;3.23;;;11.60;99.90;;;;;;6250097;22;20163;-86
2023/12/11 09:25:07;;;;;;;22.43;4.13;;;11.60;1.00;;;;;;6256659;22;20171;-85
2023/12/11 09:27:33;;;;;;;13.73;3.60;;;11.50;99.90;;;;;;6282054;22;20148;-84
2023/12/11 09:29:58;;;;;;;13.70;3.80;;;11.50;1.00;;;;;;6277209;22;20419;-86
2023/12/11 09:32:24;;;;;;;20.50;4.73;;;11.40;1.00;;;;;;6275939;22;20157;-86
2023/12/11 09:34:51;;;;;;;27.23;4.80;;;11.40;1.00;;;;;;6276559;22;20153;-85
2023/12/11 09:37:19;;;;;;;22.33;5.40;;;11.40;1.00;;;;;;6275570;22;20368;-86
2023/12/11 09:39:46;;;;;;;16.13;5.00;;;11.40;1.00;;;;;;6276262;22;20914;-86
2023/12/11 09:42:13;;;;;;;18.60;3.93;;;11.50;99.90;;;;;;6249130;22;20382;-85
2023/12/11 09:44:48;;;;;;;18.30;4.27;;;11.50;99.90;;;;;;6277429;22;20380;-86
2023/12/11 09:47:19;;;;;;;22.50;3.70;;;11.70;99.90;;;;;;6250012;22;20876;-86
2023/12/11 09:49:46;;;;;;;18.67;4.83;;;11.90;99.90;;;;;;6275211;22;20878;-87
2023/12/11 09:52:13;;;;;;;18.73;5.27;;;12.10;1.00;;;;;;6275928;22;20375;-86
2023/12/11 09:54:38;;;;;;;12.73;3.87;;;12.00;1.00;;;;;;6276247;22;20783;-85
2023/12/11 09:57:06;;;;;;;15.20;5.40;;;11.80;1.00;;;;;;6276427;22;20457;-86
2023/12/11 09:59:31;;;;;;;14.27;4.77;;;11.70;99.90;;;;;;6249681;22;20173;-86
2023/12/11 10:01:57;;;;;;;16.13;5.03;;;11.60;99.90;;;;;;6275677;22;20371;-84
2023/12/11 10:04:26;;;;;;;21.03;4.00;;;11.60;99.90;;;;;;6275094;22;20183;-86
2023/12/11 10:06:52;;;;;;;23.93;4.93;;;11.60;99.90;;;;;;6275158;22;20157;-83
2023/12/11 10:09:33;;;;;;;24.07;5.10;;;11.60;99.90;;;;;;6275391;22;20490;-83
2023/12/11 10:12:03;;;;;;;16.83;4.67;;;11.50;99.90;;;;;;6277318;22;20360;-86
2023/12/11 10:14:37;;;;;;;26.23;4.67;;;11.30;1.00;;;;;;6249607;22;20475;-86
2023/12/11 10:17:19;;;;;;;23.30;4.03;;;11.30;1.00;;;;;;6276238;22;20996;-87
2023/12/11 10:19:44;;;;;;;22.70;4.93;;;11.30;1.00;;;;;;6263866;22;20454;-86
2023/12/11 10:22:30;;;;;;;29.30;5.07;;;11.30;1.00;;;;;;6273976;22;20379;-86
2023/12/11 10:24:56;;;;;;;26.70;4.70;;;11.50;1.00;;;;;;6273933;22;20486;-85
2023/12/11 10:27:25;;;;;;;22.90;3.97;;;11.50;99.90;;;;;;6275786;22;21202;-85
2023/12/11 10:30:14;;;;;;;20.50;5.50;;;11.50;99.90;;;;;;6275543;22;20493;-85
2023/12/11 10:32:40;;;;;;;20.20;4.30;;;11.50;1.00;;;;;;6276522;22;20411;-87
2023/12/11 10:35:06;;;;;;;23.17;4.30;;;11.50;1.00;;;;;;6276286;22;20378;-86
2023/12/11 10:37:36;;;;;;;22.17;5.00;;;11.40;1.00;;;;;;6276035;22;20151;-86
2023/12/11 10:40:03;;;;;;;27.30;5.07;;;11.50;1.00;;;;;;6276141;22;20388;-84
2023/12/11 10:42:28;;;;;;;18.27;4.83;;;11.60;1.00;;;;;;6273330;22;20375;-86
2023/12/11 10:44:58;;;;;;;21.90;4.03;;;11.80;99.90;;;;;;6275535;22;20425;-86
2023/12/11 10:47:24;;;;;;;18.93;5.07;;;11.80;99.90;;;;;;6275092;22;20597;-87
2023/12/11 10:49:50;;;;;;;13.47;3.10;;;11.80;99.90;;;;;;6276216;22;20407;-86
2023/12/11 10:52:16;;;;;;;18.50;4.17;;;11.70;99.90;;;;;;6274593;22;20144;-85
2023/12/11 10:54:42;;;;;;;21.87;3.77;;;11.70;99.90;;;;;;6298112;22;20473;-85
2023/12/11 10:57:15;;;;;;;18.43;4.10;;;11.70;99.90;;;;;;6276364;22;20722;-86
2023/12/11 10:59:41;;;;;;;23.77;4.23;;;11.70;99.90;;;;;;6274822;22;20234;-86
2023/12/11 11:02:09;;;;;;;17.07;3.70;;;11.70;99.90;;;;;;6273659;22;20383;-85
2023/12/11 11:04:39;;;;;;;17.47;3.83;;;11.70;99.90;;;;;;6275229;22;20390;-85
2023/12/11 11:07:13;;;;;;;17.37;3.90;;;11.60;99.90;;;;;;6274293;22;20775;-86
2023/12/11 11:09:50;;;;;;;14.93;3.97;;;11.60;99.90;;;;;;6276610;22;20466;-86
2023/12/11 11:12:35;;;;;;;15.60;4.00;;;11.50;99.90;;;;;;6273953;22;20379;-86
2023/12/11 11:15:01;;;;;;;13.20;3.93;;;11.40;1.00;;;;;;6276050;22;20451;-86
2023/12/11 11:18:03;;;;;;;18.57;3.80;;;11.30;1.00;;;;;;6274093;22;20444;-86
2023/12/11 11:20:33;;;;;;;17.70;4.90;;;11.30;1.00;;;;;;6273127;22;20457;-86
2023/12/11 11:23:17;;;;;;;16.90;5.00;;;11.30;1.00;;;;;;6275448;22;20376;-86
2023/12/11 11:25:53;;;;;;;13.60;3.87;;;11.30;1.00;;;;;;6275562;22;20372;-84
2023/12/11 11:28:38;;;;;;;20.93;5.87;;;11.20;1.00;;;;;;6273692;22;20380;-85
2023/12/11 11:31:09;;;;;;;13.03;4.10;;;11.10;1.00;;;;;;6273526;22;20441;-87
2023/12/11 11:33:47;;;;;;;13.47;4.07;;;11.30;1.00;;;;;;6273530;22;20446;-87
2023/12/11 11:36:17;;;;;;;11.07;4.17;;;11.40;1.00;;;;;;6275813;22;20474;-84
2023/12/11 11:38:57;;;;;;;26.33;4.63;;;11.30;1.00;;;;;;6277168;22;20387;-85
2023/12/11 11:41:29;;;;;;;14.30;4.63;;;11.40;1.00;;;;;;6278013;22;20362;-85
2023/12/11 11:43:59;;;;;;;11.70;3.57;;;11.50;1.00;;;;;;6277877;22;20415;-86
2023/12/11 11:46:26;;;;;;;13.43;4.40;;;11.50;1.00;;;;;;6272539;22;20355;-85
2023/12/11 11:48:51;;;;;;;20.97;4.23;;;11.40;1.00;;;;;;6271126;22;20487;-85
2023/12/11 11:51:18;;;;;;;17.07;4.37;;;11.30;1.00;;;;;;6272596;22;20473;-86
2023/12/11 11:53:54;;;;;;;15.57;5.23;;;11.20;1.00;;;;;;6271609;22;20212;-87
2023/12/11 11:56:20;;;;;;;18.77;5.67;;;11.20;1.00;;;;;;6272198;22;20417;-86
2023/12/11 11:58:45;;;;;;;14.37;4.07;;;11.10;1.00;;;;;;6269728;22;20762;-86
2023/12/11 12:01:11;;;;;;;16.03;4.40;;;11.10;1.00;;;;;;6272700;22;20156;-85
2023/12/11 12:03:41;;;;;;;16.33;4.40;;;11.10;1.00;;;;;;6273523;22;20364;-86
2023/12/11 12:06:08;;;;;;;11.67;3.20;;;11.10;1.00;;;;;;6273414;22;20371;-85
2023/12/11 12:08:41;;;;;;;15.07;3.00;;;11.10;1.00;;;;;;6272098;22;20407;-89
2023/12/11 12:11:07;;;;;;;7.87;2.83;;;11.10;1.00;;;;;;6270530;22;21113;-84
2023/12/11 12:13:33;;;;;;;11.50;3.17;;;11.10;1.00;;;;;;6272876;22;20427;-84
2023/12/11 12:15:59;;;;;;;12.90;2.87;;;11.10;1.00;;;;;;6280269;22;20435;-88
2023/12/11 12:18:25;;;;;;;10.57;2.60;;;11.20;1.00;;;;;;6276441;22;20384;-86
2023/12/11 12:21:04;;;;;;;10.20;2.77;;;11.20;1.00;;;;;;6273444;22;20620;-86
2023/12/11 12:23:32;;;;;;;6.57;3.00;;;11.20;1.00;;;;;;6274654;22;20178;-86
2023/12/11 12:26:01;;;;;;;9.97;2.57;;;11.20;99.90;;;;;;6275323;22;20380;-87
2023/12/11 12:28:55;;;;;;;10.27;2.50;;;11.40;99.90;;;;;;6273263;22;20387;-87
2023/12/11 12:31:46;;;;;;;7.00;2.23;;;11.50;99.90;;;;;;6248154;22;20380;-86
2023/12/11 12:34:13;;;;;;;12.43;2.43;;;11.50;99.90;;;;;;6246099;22;20419;-86
2023/12/11 12:36:40;;;;;;;6.80;2.17;;;11.50;99.90;;;;;;6271604;22;20375;-86
2023/12/11 12:39:07;;;;;;;6.60;2.60;;;11.60;99.90;;;;;;6273426;22;20392;-85